sensor_id;sensor_type;location;lat;lon;timestamp;temperature;humidity
21033;DHT22;10675;47.976;7.824;2023-09-18T00:01:38;19.80;99.90
21033;DHT22;10675;47.976;7.824;2023-09-18T00:04:05;19.80;99.90
21033;DHT22;10675;47.976;7.824;2023-09-18T00:06:31;19.80;99.90
21033;DHT22;10675;47.976;7.824;2023-09-18T00:08:56;20.60;99.90
21033;DHT22;10675;47.976;7.824;2023-09-18T00:11:22;20.90;99.90
21033;DHT22;10675;47.976;7.824;2023-09-18T00:13:47;20.50;99.90
21033;DHT22;10675;47.976;7.824;2023-09-18T00:16:13;20.10;99.90
21033;DHT22;10675;47.976;7.824;2023-09-18T00:18:38;19.70;99.90
21033;DHT22;10675;47.976;7.824;2023-09-18T00:21:04;19.60;99.90
21033;DHT22;10675;47.976;7.824;2023-09-18T00:23:32;19.60;99.90
21033;DHT22;10675;47.976;7.824;2023-09-18T00:26:00;19.60;99.90
21033;DHT22;10675;47.976;7.824;2023-09-18T00:28:26;19.50;99.90
21033;DHT22;10675;47.976;7.824;2023-09-18T00:30:51;19.50;99.90
21033;DHT22;10675;47.976;7.824;2023-09-18T00:33:17;19.40;99.90
21033;DHT22;10675;47.976;7.824;2023-09-18T00:35:51;19.30;99.90
21033;DHT22;10675;47.976;7.824;2023-09-18T00:38:17;19.30;99.90
21033;DHT22;10675;47.976;7.824;2023-09-18T00:40:44;19.20;99.90
21033;DHT22;10675;47.976;7.824;2023-09-18T00:43:10;19.20;99.90
21033;DHT22;10675;47.976;7.824;2023-09-18T00:45:40;19.20;99.90
21033;DHT22;10675;47.976;7.824;2023-09-18T00:48:07;19.20;99.90
21033;DHT22;10675;47.976;7.824;2023-09-18T00:50:32;19.00;99.90
21033;DHT22;10675;47.976;7.824;2023-09-18T00:52:59;19.00;99.90
21033;DHT22;10675;47.976;7.824;2023-09-18T00:55:26;19.10;99.90
21033;DHT22;10675;47.976;7.824;2023-09-18T00:57:52;19.00;99.90
21033;DHT22;10675;47.976;7.824;2023-09-18T01:00:17;19.10;99.90
21033;DHT22;10675;47.976;7.824;2023-09-18T01:02:43;19.10;99.90
21033;DHT22;10675;47.976;7.824;2023-09-18T01:05:10;19.20;99.90
21033;DHT22;10675;47.976;7.824;2023-09-18T01:07:36;19.20;99.90
21033;DHT22;10675;47.976;7.824;2023-09-18T01:10:02;19.20;99.90
21033;DHT22;10675;47.976;7.824;2023-09-18T01:12:38;19.20;99.90
21033;DHT22;10675;47.976;7.824;2023-09-18T01:15:18;19.20;99.90
21033;DHT22;10675;47.976;7.824;2023-09-18T01:17:46;19.20;99.90
21033;DHT22;10675;47.976;7.824;2023-09-18T01:20:12;19.30;99.90
21033;DHT22;10675;47.976;7.824;2023-09-18T01:22:38;19.30;99.90
21033;DHT22;10675;47.976;7.824;2023-09-18T01:25:03;19.30;99.90
21033;DHT22;10675;47.976;7.824;2023-09-18T01:27:31;19.30;99.90
21033;DHT22;10675;47.976;7.824;2023-09-18T01:29:56;19.30;99.90
21033;DHT22;10675;47.976;7.824;2023-09-18T01:32:25;19.30;99.90
21033;DHT22;10675;47.976;7.824;2023-09-18T01:34:54;19.30;99.90
21033;DHT22;10675;47.976;7.824;2023-09-18T01:37:24;19.30;99.90
21033;DHT22;10675;47.976;7.824;2023-09-18T01:39:51;19.30;99.90
21033;DHT22;10675;47.976;7.824;2023-09-18T01:42:18;19.30;99.90
21033;DHT22;10675;47.976;7.824;2023-09-18T01:44:44;19.30;99.90
21033;DHT22;10675;47.976;7.824;2023-09-18T01:47:12;19.30;99.90
21033;DHT22;10675;47.976;7.824;2023-09-18T01:49:40;19.40;99.90
21033;DHT22;10675;47.976;7.824;2023-09-18T01:52:07;19.40;99.90
21033;DHT22;10675;47.976;7.824;2023-09-18T01:54:34;19.30;99.90
21033;DHT22;10675;47.976;7.824;2023-09-18T01:56:59;19.40;99.90
21033;DHT22;10675;47.976;7.824;2023-09-18T01:59:25;19.40;99.90
21033;DHT22;10675;47.976;7.824;2023-09-18T02:01:52;19.30;99.90
21033;DHT22;10675;47.976;7.824;2023-09-18T02:04:18;19.30;99.90
21033;DHT22;10675;47.976;7.824;2023-09-18T02:06:44;19.30;99.90
21033;DHT22;10675;47.976;7.824;2023-09-18T02:09:09;19.30;99.90
21033;DHT22;10675;47.976;7.824;2023-09-18T02:11:39;19.40;99.90
21033;DHT22;10675;47.976;7.824;2023-09-18T02:14:05;19.30;99.90
21033;DHT22;10675;47.976;7.824;2023-09-18T02:16:38;19.30;99.90
21033;DHT22;10675;47.976;7.824;2023-09-18T02:19:07;19.30;99.90
21033;DHT22;10675;47.976;7.824;2023-09-18T02:21:34;19.40;99.90
21033;DHT22;10675;47.976;7.824;2023-09-18T02:24:00;20.10;99.90
21033;DHT22;10675;47.976;7.824;2023-09-18T02:26:26;20.50;99.90
21033;DHT22;10675;47.976;7.824;2023-09-18T02:28:53;20.60;99.90
21033;DHT22;10675;47.976;7.824;2023-09-18T02:31:19;20.80;99.90
21033;DHT22;10675;47.976;7.824;2023-09-18T02:33:45;20.70;99.90
21033;DHT22;10675;47.976;7.824;2023-09-18T02:36:12;20.50;99.90
21033;DHT22;10675;47.976;7.824;2023-09-18T02:38:37;20.30;99.90
21033;DHT22;10675;47.976;7.824;2023-09-18T02:41:03;20.10;99.90
21033;DHT22;10675;47.976;7.824;2023-09-18T02:43:29;20.00;99.90
21033;DHT22;10675;47.976;7.824;2023-09-18T02:45:54;19.90;99.90
21033;DHT22;10675;47.976;7.824;2023-09-18T02:48:20;19.70;99.90
21033;DHT22;10675;47.976;7.824;2023-09-18T02:50:45;19.70;99.90
21033;DHT22;10675;47.976;7.824;2023-09-18T02:53:19;19.50;99.90
21033;DHT22;10675;47.976;7.824;2023-09-18T02:55:46;19.40;99.90
21033;DHT22;10675;47.976;7.824;2023-09-18T02:58:12;19.30;99.90
21033;DHT22;10675;47.976;7.824;2023-09-18T03:00:42;19.20;99.90
21033;DHT22;10675;47.976;7.824;2023-09-18T03:03:08;19.00;99.90
21033;DHT22;10675;47.976;7.824;2023-09-18T03:05:34;19.00;99.90
21033;DHT22;10675;47.976;7.824;2023-09-18T03:07:59;18.90;99.90
21033;DHT22;10675;47.976;7.824;2023-09-18T03:10:25;18.90;99.90
21033;DHT22;10675;47.976;7.824;2023-09-18T03:12:50;18.40;99.90
21033;DHT22;10675;47.976;7.824;2023-09-18T03:15:16;18.80;99.90
21033;DHT22;10675;47.976;7.824;2023-09-18T03:17:42;18.80;99.90
21033;DHT22;10675;47.976;7.824;2023-09-18T03:20:08;18.80;99.90
21033;DHT22;10675;47.976;7.824;2023-09-18T03:22:34;18.70;99.90
21033;DHT22;10675;47.976;7.824;2023-09-18T03:25:00;18.70;99.90
21033;DHT22;10675;47.976;7.824;2023-09-18T03:27:25;18.80;99.90
21033;DHT22;10675;47.976;7.824;2023-09-18T03:29:54;18.80;99.90
21033;DHT22;10675;47.976;7.824;2023-09-18T03:32:20;18.80;99.90
21033;DHT22;10675;47.976;7.824;2023-09-18T03:34:46;18.70;99.90
21033;DHT22;10675;47.976;7.824;2023-09-18T03:37:11;18.80;99.90
21033;DHT22;10675;47.976;7.824;2023-09-18T03:39:37;18.70;99.90
21033;DHT22;10675;47.976;7.824;2023-09-18T03:42:03;18.70;99.90
21033;DHT22;10675;47.976;7.824;2023-09-18T03:44:28;18.60;99.90
21033;DHT22;10675;47.976;7.824;2023-09-18T03:46:54;18.60;99.90
21033;DHT22;10675;47.976;7.824;2023-09-18T03:49:20;18.60;99.90
21033;DHT22;10675;47.976;7.824;2023-09-18T03:51:45;18.50;99.90
21033;DHT22;10675;47.976;7.824;2023-09-18T03:54:11;18.50;99.90
21033;DHT22;10675;47.976;7.824;2023-09-18T03:56:37;18.40;99.90
21033;DHT22;10675;47.976;7.824;2023-09-18T03:59:02;18.40;99.90
21033;DHT22;10675;47.976;7.824;2023-09-18T04:01:30;18.50;99.90
21033;DHT22;10675;47.976;7.824;2023-09-18T04:03:55;18.40;99.90
21033;DHT22;10675;47.976;7.824;2023-09-18T04:06:21;18.40;99.90
21033;DHT22;10675;47.976;7.824;2023-09-18T04:08:50;18.30;99.90
21033;DHT22;10675;47.976;7.824;2023-09-18T04:11:15;18.20;99.90
21033;DHT22;10675;47.976;7.824;2023-09-18T04:13:41;18.20;99.90
21033;DHT22;10675;47.976;7.824;2023-09-18T04:16:06;18.30;99.90
21033;DHT22;10675;47.976;7.824;2023-09-18T04:18:33;18.40;99.90
21033;DHT22;10675;47.976;7.824;2023-09-18T04:20:59;18.30;99.90
21033;DHT22;10675;47.976;7.824;2023-09-18T04:23:26;18.30;99.90
21033;DHT22;10675;47.976;7.824;2023-09-18T04:25:53;18.20;99.90
21033;DHT22;10675;47.976;7.824;2023-09-18T04:28:21;18.20;99.90
21033;DHT22;10675;47.976;7.824;2023-09-18T04:30:47;18.10;99.90
21033;DHT22;10675;47.976;7.824;2023-09-18T04:33:17;18.20;99.90
21033;DHT22;10675;47.976;7.824;2023-09-18T04:35:43;18.10;99.90
21033;DHT22;10675;47.976;7.824;2023-09-18T04:38:09;18.10;99.90
21033;DHT22;10675;47.976;7.824;2023-09-18T04:40:40;18.10;99.90
21033;DHT22;10675;47.976;7.824;2023-09-18T04:43:06;18.20;99.90
21033;DHT22;10675;47.976;7.824;2023-09-18T04:45:31;18.20;99.90
21033;DHT22;10675;47.976;7.824;2023-09-18T04:47:58;18.20;99.90
21033;DHT22;10675;47.976;7.824;2023-09-18T04:50:23;18.30;99.90
21033;DHT22;10675;47.976;7.824;2023-09-18T04:52:51;18.20;99.90
21033;DHT22;10675;47.976;7.824;2023-09-18T04:55:19;18.20;99.90
21033;DHT22;10675;47.976;7.824;2023-09-18T04:57:45;18.20;99.90
21033;DHT22;10675;47.976;7.824;2023-09-18T05:00:11;18.10;99.90
21033;DHT22;10675;47.976;7.824;2023-09-18T05:02:39;18.00;99.90
21033;DHT22;10675;47.976;7.824;2023-09-18T05:05:05;18.00;99.90
21033;DHT22;10675;47.976;7.824;2023-09-18T05:07:31;18.10;99.90
21033;DHT22;10675;47.976;7.824;2023-09-18T05:09:58;18.10;99.90
21033;DHT22;10675;47.976;7.824;2023-09-18T05:12:23;18.10;99.90
21033;DHT22;10675;47.976;7.824;2023-09-18T05:14:49;18.10;99.90
21033;DHT22;10675;47.976;7.824;2023-09-18T05:17:16;18.20;99.90
21033;DHT22;10675;47.976;7.824;2023-09-18T05:19:42;18.20;99.90
21033;DHT22;10675;47.976;7.824;2023-09-18T05:22:08;18.10;99.90
21033;DHT22;10675;47.976;7.824;2023-09-18T05:24:36;18.20;99.90
21033;DHT22;10675;47.976;7.824;2023-09-18T05:27:01;18.30;99.90
21033;DHT22;10675;47.976;7.824;2023-09-18T05:29:28;18.30;99.90
21033;DHT22;10675;47.976;7.824;2023-09-18T05:31:53;18.30;99.90
21033;DHT22;10675;47.976;7.824;2023-09-18T05:34:19;18.40;99.90
21033;DHT22;10675;47.976;7.824;2023-09-18T05:36:44;18.40;99.90
21033;DHT22;10675;47.976;7.824;2023-09-18T05:39:10;18.40;99.90
21033;DHT22;10675;47.976;7.824;2023-09-18T05:41:41;18.30;99.90
21033;DHT22;10675;47.976;7.824;2023-09-18T05:44:07;18.20;99.90
21033;DHT22;10675;47.976;7.824;2023-09-18T05:46:36;18.10;99.90
21033;DHT22;10675;47.976;7.824;2023-09-18T05:49:02;18.00;99.90
21033;DHT22;10675;47.976;7.824;2023-09-18T05:51:28;18.00;99.90
21033;DHT22;10675;47.976;7.824;2023-09-18T05:53:53;18.00;99.90
21033;DHT22;10675;47.976;7.824;2023-09-18T05:56:19;18.10;99.90
21033;DHT22;10675;47.976;7.824;2023-09-18T05:58:44;18.10;99.90
21033;DHT22;10675;47.976;7.824;2023-09-18T06:01:10;18.10;99.90
21033;DHT22;10675;47.976;7.824;2023-09-18T06:03:36;18.10;99.90
21033;DHT22;10675;47.976;7.824;2023-09-18T06:06:02;18.10;99.90
21033;DHT22;10675;47.976;7.824;2023-09-18T06:08:29;18.10;99.90
21033;DHT22;10675;47.976;7.824;2023-09-18T06:10:56;18.20;99.90
21033;DHT22;10675;47.976;7.824;2023-09-18T06:13:21;18.40;99.90
21033;DHT22;10675;47.976;7.824;2023-09-18T06:15:47;18.30;99.90
21033;DHT22;10675;47.976;7.824;2023-09-18T06:18:13;18.40;99.90
21033;DHT22;10675;47.976;7.824;2023-09-18T06:20:39;18.40;99.90
21033;DHT22;10675;47.976;7.824;2023-09-18T06:23:05;18.30;99.90
21033;DHT22;10675;47.976;7.824;2023-09-18T06:25:30;18.30;99.90
21033;DHT22;10675;47.976;7.824;2023-09-18T06:27:56;18.30;99.90
21033;DHT22;10675;47.976;7.824;2023-09-18T06:30:22;18.20;99.90
21033;DHT22;10675;47.976;7.824;2023-09-18T06:32:48;18.20;99.90
21033;DHT22;10675;47.976;7.824;2023-09-18T06:35:13;18.20;99.90
21033;DHT22;10675;47.976;7.824;2023-09-18T06:37:39;18.20;99.90
21033;DHT22;10675;47.976;7.824;2023-09-18T06:40:05;18.30;99.90
21033;DHT22;10675;47.976;7.824;2023-09-18T06:42:31;18.30;99.90
21033;DHT22;10675;47.976;7.824;2023-09-18T06:44:57;18.30;99.90
21033;DHT22;10675;47.976;7.824;2023-09-18T06:47:23;18.30;99.90
21033;DHT22;10675;47.976;7.824;2023-09-18T06:49:50;18.40;99.90
21033;DHT22;10675;47.976;7.824;2023-09-18T06:52:16;18.40;99.90
21033;DHT22;10675;47.976;7.824;2023-09-18T06:54:42;18.40;99.90
21033;DHT22;10675;47.976;7.824;2023-09-18T06:57:09;18.40;99.90
21033;DHT22;10675;47.976;7.824;2023-09-18T06:59:35;18.40;99.90
21033;DHT22;10675;47.976;7.824;2023-09-18T07:02:01;18.40;99.90
21033;DHT22;10675;47.976;7.824;2023-09-18T07:04:27;18.40;99.90
21033;DHT22;10675;47.976;7.824;2023-09-18T07:06:53;18.30;99.90
21033;DHT22;10675;47.976;7.824;2023-09-18T07:09:19;18.60;99.90
21033;DHT22;10675;47.976;7.824;2023-09-18T07:11:45;18.70;99.90
21033;DHT22;10675;47.976;7.824;2023-09-18T07:14:10;18.60;99.90
21033;DHT22;10675;47.976;7.824;2023-09-18T07:16:36;18.80;99.90
21033;DHT22;10675;47.976;7.824;2023-09-18T07:19:02;18.90;99.90
21033;DHT22;10675;47.976;7.824;2023-09-18T07:21:30;18.90;99.90
21033;DHT22;10675;47.976;7.824;2023-09-18T07:23:56;18.70;99.90
21033;DHT22;10675;47.976;7.824;2023-09-18T07:26:21;18.50;99.90
21033;DHT22;10675;47.976;7.824;2023-09-18T07:28:47;18.50;99.90
21033;DHT22;10675;47.976;7.824;2023-09-18T07:31:13;18.50;99.90
21033;DHT22;10675;47.976;7.824;2023-09-18T07:33:40;18.60;99.90
21033;DHT22;10675;47.976;7.824;2023-09-18T07:36:06;18.80;99.90
21033;DHT22;10675;47.976;7.824;2023-09-18T07:38:31;18.90;99.90
21033;DHT22;10675;47.976;7.824;2023-09-18T07:40:57;19.00;99.90
21033;DHT22;10675;47.976;7.824;2023-09-18T07:43:24;18.80;99.90
21033;DHT22;10675;47.976;7.824;2023-09-18T07:45:50;18.60;99.90
21033;DHT22;10675;47.976;7.824;2023-09-18T07:48:16;18.50;99.90
21033;DHT22;10675;47.976;7.824;2023-09-18T07:50:45;18.50;99.90
21033;DHT22;10675;47.976;7.824;2023-09-18T07:53:11;18.60;99.90
21033;DHT22;10675;47.976;7.824;2023-09-18T07:55:36;18.50;99.90
21033;DHT22;10675;47.976;7.824;2023-09-18T07:58:02;18.50;99.90
21033;DHT22;10675;47.976;7.824;2023-09-18T08:00:28;18.50;99.90
21033;DHT22;10675;47.976;7.824;2023-09-18T08:02:55;18.40;99.90
21033;DHT22;10675;47.976;7.824;2023-09-18T08:05:26;18.50;99.90
21033;DHT22;10675;47.976;7.824;2023-09-18T08:07:57;18.60;99.90
21033;DHT22;10675;47.976;7.824;2023-09-18T08:10:25;19.10;99.90
21033;DHT22;10675;47.976;7.824;2023-09-18T08:12:50;19.70;99.90
21033;DHT22;10675;47.976;7.824;2023-09-18T08:15:21;19.50;99.90
21033;DHT22;10675;47.976;7.824;2023-09-18T08:17:47;20.50;99.90
21033;DHT22;10675;47.976;7.824;2023-09-18T08:20:15;20.00;99.90
21033;DHT22;10675;47.976;7.824;2023-09-18T08:22:41;19.70;99.90
21033;DHT22;10675;47.976;7.824;2023-09-18T08:25:07;19.50;99.90
21033;DHT22;10675;47.976;7.824;2023-09-18T08:27:37;19.00;99.90
21033;DHT22;10675;47.976;7.824;2023-09-18T08:30:07;19.10;99.90
21033;DHT22;10675;47.976;7.824;2023-09-18T08:32:35;19.20;99.90
21033;DHT22;10675;47.976;7.824;2023-09-18T08:35:01;19.00;99.90
21033;DHT22;10675;47.976;7.824;2023-09-18T08:37:27;18.80;99.90
21033;DHT22;10675;47.976;7.824;2023-09-18T08:39:53;18.60;99.90
21033;DHT22;10675;47.976;7.824;2023-09-18T08:42:20;18.60;99.90
21033;DHT22;10675;47.976;7.824;2023-09-18T08:44:49;18.70;99.90
21033;DHT22;10675;47.976;7.824;2023-09-18T08:47:17;19.20;99.90
21033;DHT22;10675;47.976;7.824;2023-09-18T08:49:45;19.30;99.90
21033;DHT22;10675;47.976;7.824;2023-09-18T08:52:11;19.50;99.90
21033;DHT22;10675;47.976;7.824;2023-09-18T08:54:38;19.30;99.90
21033;DHT22;10675;47.976;7.824;2023-09-18T08:57:04;19.20;99.90
21033;DHT22;10675;47.976;7.824;2023-09-18T08:59:34;19.20;99.90
21033;DHT22;10675;47.976;7.824;2023-09-18T09:02:00;19.30;99.90
21033;DHT22;10675;47.976;7.824;2023-09-18T09:04:25;19.00;99.90
21033;DHT22;10675;47.976;7.824;2023-09-18T09:06:51;18.80;99.90
21033;DHT22;10675;47.976;7.824;2023-09-18T09:09:17;18.80;99.90
21033;DHT22;10675;47.976;7.824;2023-09-18T09:11:51;18.80;99.90
21033;DHT22;10675;47.976;7.824;2023-09-18T09:14:16;19.60;99.90
21033;DHT22;10675;47.976;7.824;2023-09-18T09:16:54;19.30;99.90
21033;DHT22;10675;47.976;7.824;2023-09-18T09:19:31;18.80;99.90
21033;DHT22;10675;47.976;7.824;2023-09-18T09:21:58;18.60;99.90
21033;DHT22;10675;47.976;7.824;2023-09-18T09:24:43;18.60;99.90
21033;DHT22;10675;47.976;7.824;2023-09-18T09:27:10;18.60;99.90
21033;DHT22;10675;47.976;7.824;2023-09-18T09:29:36;18.50;99.90
21033;DHT22;10675;47.976;7.824;2023-09-18T09:32:16;18.50;99.90
21033;DHT22;10675;47.976;7.824;2023-09-18T09:34:43;18.40;99.90
21033;DHT22;10675;47.976;7.824;2023-09-18T09:37:09;18.50;99.90
21033;DHT22;10675;47.976;7.824;2023-09-18T09:39:49;18.50;99.90
21033;DHT22;10675;47.976;7.824;2023-09-18T09:42:19;19.40;99.90
21033;DHT22;10675;47.976;7.824;2023-09-18T09:45:02;18.50;99.90
21033;DHT22;10675;47.976;7.824;2023-09-18T09:47:32;18.50;99.90
21033;DHT22;10675;47.976;7.824;2023-09-18T09:49:58;18.50;99.90
21033;DHT22;10675;47.976;7.824;2023-09-18T09:52:23;18.40;99.90
21033;DHT22;10675;47.976;7.824;2023-09-18T09:54:49;18.70;99.90
21033;DHT22;10675;47.976;7.824;2023-09-18T09:57:14;18.60;99.90
21033;DHT22;10675;47.976;7.824;2023-09-18T09:59:40;18.90;99.90
21033;DHT22;10675;47.976;7.824;2023-09-18T10:02:10;19.00;99.90
21033;DHT22;10675;47.976;7.824;2023-09-18T10:04:40;19.40;99.90
21033;DHT22;10675;47.976;7.824;2023-09-18T10:07:07;19.40;99.90
21033;DHT22;10675;47.976;7.824;2023-09-18T10:09:35;20.00;99.90
21033;DHT22;10675;47.976;7.824;2023-09-18T10:12:04;19.80;99.90
21033;DHT22;10675;47.976;7.824;2023-09-18T10:14:33;19.60;99.90
21033;DHT22;10675;47.976;7.824;2023-09-18T10:17:15;19.60;99.90
21033;DHT22;10675;47.976;7.824;2023-09-18T10:22:25;20.10;99.90
21033;DHT22;10675;47.976;7.824;2023-09-18T10:24:57;20.10;99.90
21033;DHT22;10675;47.976;7.824;2023-09-18T10:27:25;19.90;99.90
21033;DHT22;10675;47.976;7.824;2023-09-18T10:29:54;19.70;99.90
21033;DHT22;10675;47.976;7.824;2023-09-18T10:32:20;19.90;99.90
21033;DHT22;10675;47.976;7.824;2023-09-18T10:34:47;20.20;99.90
21033;DHT22;10675;47.976;7.824;2023-09-18T10:37:14;20.20;99.90
21033;DHT22;10675;47.976;7.824;2023-09-18T10:39:41;20.40;99.90
21033;DHT22;10675;47.976;7.824;2023-09-18T10:42:08;20.70;99.90
21033;DHT22;10675;47.976;7.824;2023-09-18T10:44:34;20.70;99.90
21033;DHT22;10675;47.976;7.824;2023-09-18T10:47:02;20.70;99.90
21033;DHT22;10675;47.976;7.824;2023-09-18T10:49:31;20.90;99.90
21033;DHT22;10675;47.976;7.824;2023-09-18T10:51:57;20.90;99.90
21033;DHT22;10675;47.976;7.824;2023-09-18T10:54:25;21.00;99.90
21033;DHT22;10675;47.976;7.824;2023-09-18T10:56:52;21.20;99.90
21033;DHT22;10675;47.976;7.824;2023-09-18T10:59:17;21.20;99.90
21033;DHT22;10675;47.976;7.824;2023-09-18T11:01:44;21.40;99.90
21033;DHT22;10675;47.976;7.824;2023-09-18T11:04:10;21.70;99.90
21033;DHT22;10675;47.976;7.824;2023-09-18T11:09:21;21.80;99.90
21033;DHT22;10675;47.976;7.824;2023-09-18T11:12:42;21.70;99.90
21033;DHT22;10675;47.976;7.824;2023-09-18T11:17:37;21.50;99.90
21033;DHT22;10675;47.976;7.824;2023-09-18T11:20:07;21.40;99.90
21033;DHT22;10675;47.976;7.824;2023-09-18T11:22:46;21.60;99.90
21033;DHT22;10675;47.976;7.824;2023-09-18T11:28:23;21.60;99.90
21033;DHT22;10675;47.976;7.824;2023-09-18T11:30:53;21.70;99.90
21033;DHT22;10675;47.976;7.824;2023-09-18T11:36:14;21.80;99.90
21033;DHT22;10675;47.976;7.824;2023-09-18T11:38:52;22.00;99.90
21033;DHT22;10675;47.976;7.824;2023-09-18T11:41:26;22.20;99.90
21033;DHT22;10675;47.976;7.824;2023-09-18T11:43:52;22.00;99.90
21033;DHT22;10675;47.976;7.824;2023-09-18T11:46:39;22.10;99.90
21033;DHT22;10675;47.976;7.824;2023-09-18T11:49:08;22.20;99.90
21033;DHT22;10675;47.976;7.824;2023-09-18T11:51:35;22.20;99.90
21033;DHT22;10675;47.976;7.824;2023-09-18T11:54:02;22.10;99.90
21033;DHT22;10675;47.976;7.824;2023-09-18T11:56:29;22.20;99.90
21033;DHT22;10675;47.976;7.824;2023-09-18T11:58:55;22.20;99.90
21033;DHT22;10675;47.976;7.824;2023-09-18T12:01:21;22.20;99.90
21033;DHT22;10675;47.976;7.824;2023-09-18T12:03:54;22.00;99.90
21033;DHT22;10675;47.976;7.824;2023-09-18T12:06:20;22.10;99.90
21033;DHT22;10675;47.976;7.824;2023-09-18T12:08:46;22.20;99.90
21033;DHT22;10675;47.976;7.824;2023-09-18T12:11:13;22.20;99.90
21033;DHT22;10675;47.976;7.824;2023-09-18T12:13:42;22.10;99.90
21033;DHT22;10675;47.976;7.824;2023-09-18T12:16:08;22.20;99.90
21033;DHT22;10675;47.976;7.824;2023-09-18T12:18:35;22.20;99.90
21033;DHT22;10675;47.976;7.824;2023-09-18T12:21:06;22.40;99.90
21033;DHT22;10675;47.976;7.824;2023-09-18T12:23:39;22.50;99.90
21033;DHT22;10675;47.976;7.824;2023-09-18T12:26:05;22.50;99.90
21033;DHT22;10675;47.976;7.824;2023-09-18T12:28:37;22.80;99.90
21033;DHT22;10675;47.976;7.824;2023-09-18T12:31:03;22.70;99.90
21033;DHT22;10675;47.976;7.824;2023-09-18T12:33:34;22.60;99.90
21033;DHT22;10675;47.976;7.824;2023-09-18T12:36:01;22.30;99.90
21033;DHT22;10675;47.976;7.824;2023-09-18T12:38:27;22.20;99.90
21033;DHT22;10675;47.976;7.824;2023-09-18T12:40:54;22.10;99.90
21033;DHT22;10675;47.976;7.824;2023-09-18T12:43:20;22.40;99.90
21033;DHT22;10675;47.976;7.824;2023-09-18T12:45:48;22.60;99.90
21033;DHT22;10675;47.976;7.824;2023-09-18T12:48:15;22.80;99.90
21033;DHT22;10675;47.976;7.824;2023-09-18T12:50:41;23.00;99.90
21033;DHT22;10675;47.976;7.824;2023-09-18T12:53:22;23.10;99.90
21033;DHT22;10675;47.976;7.824;2023-09-18T12:55:48;23.10;99.40
21033;DHT22;10675;47.976;7.824;2023-09-18T12:58:21;23.00;99.50
21033;DHT22;10675;47.976;7.824;2023-09-18T13:00:50;23.00;98.90
21033;DHT22;10675;47.976;7.824;2023-09-18T13:03:16;22.80;99.00
21033;DHT22;10675;47.976;7.824;2023-09-18T13:05:42;22.80;99.50
21033;DHT22;10675;47.976;7.824;2023-09-18T13:08:07;23.00;99.60
21033;DHT22;10675;47.976;7.824;2023-09-18T13:10:44;23.20;98.10
21033;DHT22;10675;47.976;7.824;2023-09-18T13:13:20;23.10;98.90
21033;DHT22;10675;47.976;7.824;2023-09-18T13:15:47;23.20;98.70
21033;DHT22;10675;47.976;7.824;2023-09-18T13:18:15;23.30;98.30
21033;DHT22;10675;47.976;7.824;2023-09-18T13:20:41;23.20;98.60
21033;DHT22;10675;47.976;7.824;2023-09-18T13:23:08;23.30;98.50
21033;DHT22;10675;47.976;7.824;2023-09-18T13:28:02;23.20;97.60
21033;DHT22;10675;47.976;7.824;2023-09-18T13:30:29;23.30;98.10
21033;DHT22;10675;47.976;7.824;2023-09-18T13:33:22;23.00;97.30
21033;DHT22;10675;47.976;7.824;2023-09-18T13:35:49;23.20;97.50
21033;DHT22;10675;47.976;7.824;2023-09-18T13:38:15;23.30;96.80
21033;DHT22;10675;47.976;7.824;2023-09-18T13:40:41;23.00;97.00
21033;DHT22;10675;47.976;7.824;2023-09-18T13:43:09;23.00;97.50
21033;DHT22;10675;47.976;7.824;2023-09-18T13:45:35;23.10;97.20
21033;DHT22;10675;47.976;7.824;2023-09-18T13:48:04;23.00;98.00
21033;DHT22;10675;47.976;7.824;2023-09-18T13:50:32;23.10;97.40
21033;DHT22;10675;47.976;7.824;2023-09-18T13:52:57;23.30;96.70
21033;DHT22;10675;47.976;7.824;2023-09-18T13:55:24;23.30;97.40
21033;DHT22;10675;47.976;7.824;2023-09-18T13:57:50;23.20;96.80
21033;DHT22;10675;47.976;7.824;2023-09-18T14:00:16;23.30;96.10
21033;DHT22;10675;47.976;7.824;2023-09-18T14:02:42;23.10;96.70
21033;DHT22;10675;47.976;7.824;2023-09-18T14:05:08;23.50;96.80
21033;DHT22;10675;47.976;7.824;2023-09-18T14:07:35;23.40;96.00
21033;DHT22;10675;47.976;7.824;2023-09-18T14:10:01;23.40;96.60
21033;DHT22;10675;47.976;7.824;2023-09-18T14:12:30;23.30;96.80
21033;DHT22;10675;47.976;7.824;2023-09-18T14:14:56;23.40;96.10
21033;DHT22;10675;47.976;7.824;2023-09-18T14:17:22;23.20;96.80
21033;DHT22;10675;47.976;7.824;2023-09-18T14:19:48;23.10;96.80
21033;DHT22;10675;47.976;7.824;2023-09-18T14:22:14;23.30;97.10
21033;DHT22;10675;47.976;7.824;2023-09-18T14:24:40;23.40;96.10
21033;DHT22;10675;47.976;7.824;2023-09-18T14:27:06;23.50;95.40
21033;DHT22;10675;47.976;7.824;2023-09-18T14:29:33;23.60;95.60
21033;DHT22;10675;47.976;7.824;2023-09-18T14:31:59;23.70;95.10
21033;DHT22;10675;47.976;7.824;2023-09-18T14:34:25;23.80;95.50
21033;DHT22;10675;47.976;7.824;2023-09-18T14:36:50;23.90;95.80
21033;DHT22;10675;47.976;7.824;2023-09-18T14:39:16;23.60;95.20
21033;DHT22;10675;47.976;7.824;2023-09-18T14:41:41;24.00;95.50
21033;DHT22;10675;47.976;7.824;2023-09-18T14:44:08;23.40;94.80
21033;DHT22;10675;47.976;7.824;2023-09-18T14:46:35;23.20;96.20
21033;DHT22;10675;47.976;7.824;2023-09-18T14:49:03;23.20;95.90
21033;DHT22;10675;47.976;7.824;2023-09-18T14:51:28;23.30;96.30
21033;DHT22;10675;47.976;7.824;2023-09-18T14:53:55;23.30;96.10
21033;DHT22;10675;47.976;7.824;2023-09-18T14:56:20;23.30;95.30
21033;DHT22;10675;47.976;7.824;2023-09-18T14:58:46;23.30;95.30
21033;DHT22;10675;47.976;7.824;2023-09-18T15:01:11;23.30;95.30
21033;DHT22;10675;47.976;7.824;2023-09-18T15:03:39;23.30;95.40
21033;DHT22;10675;47.976;7.824;2023-09-18T15:06:05;23.20;95.70
21033;DHT22;10675;47.976;7.824;2023-09-18T15:08:35;23.50;95.60
21033;DHT22;10675;47.976;7.824;2023-09-18T15:11:01;23.30;95.50
21033;DHT22;10675;47.976;7.824;2023-09-18T15:13:27;23.10;96.60
21033;DHT22;10675;47.976;7.824;2023-09-18T15:15:52;23.30;95.30
21033;DHT22;10675;47.976;7.824;2023-09-18T15:18:18;23.10;95.70
21033;DHT22;10675;47.976;7.824;2023-09-18T15:20:43;23.30;95.50
21033;DHT22;10675;47.976;7.824;2023-09-18T15:23:09;23.10;94.10
21033;DHT22;10675;47.976;7.824;2023-09-18T15:25:35;23.10;94.60
21033;DHT22;10675;47.976;7.824;2023-09-18T15:28:06;23.00;94.70
21033;DHT22;10675;47.976;7.824;2023-09-18T15:30:31;22.70;95.10
21033;DHT22;10675;47.976;7.824;2023-09-18T15:32:58;22.90;94.10
21033;DHT22;10675;47.976;7.824;2023-09-18T15:35:24;23.00;94.30
21033;DHT22;10675;47.976;7.824;2023-09-18T15:37:50;23.00;95.00
21033;DHT22;10675;47.976;7.824;2023-09-18T15:40:16;22.80;95.20
21033;DHT22;10675;47.976;7.824;2023-09-18T15:42:44;22.60;95.30
21033;DHT22;10675;47.976;7.824;2023-09-18T15:45:10;22.70;95.50
21033;DHT22;10675;47.976;7.824;2023-09-18T15:47:43;22.80;96.20